Damascus, Syria
Current Conditions -  °F | °C
As of 4:00 AM on Tuesday 21 Oct 2014 (Local Time) from OSDI Reporting Station
Clear Clear  
Wind Chill:   Ceiling: Unl
Heat Index:   Visibility: 6mi
Dew Point:   Wind: 2mph
Humidity: 81%   Direction: 140°SE
Pressure: 29.97"   Gusts: NA
Location:  33.5°N, 36.32°E
Report Text: OSDI 210100Z 14002KT CAVOK 05/02 Q1015
Loading
Personal Weather Stations






























Interactive Weather Map New forecast layout! Learn more

10-Day Weather Forecast

Advertisements
Track Severe Weather on mobile